createdAt,value
2019-03-03T00:01:50.809Z,98.52
2019-03-03T00:06:54.388Z,95.90
2019-03-03T00:11:57.943Z,97.35
2019-03-03T00:17:01.504Z,93.65
2019-03-03T00:22:05.164Z,95.47
2019-03-03T00:27:08.718Z,94.52
2019-03-03T00:32:12.789Z,91.00
2019-03-03T00:37:23.833Z,98.45
2019-03-03T00:42:45.103Z,92.78
2019-03-03T00:48:06.029Z,87.85
2019-03-03T00:53:11.197Z,92.48
2019-03-03T00:58:16.327Z,93.53
2019-03-03T01:03:24.217Z,92.43
2019-03-03T01:08:29.362Z,87.27
2019-03-03T01:13:40.553Z,85.75
2019-03-03T01:18:54.458Z,85.40
2019-03-03T01:24:15.894Z,86.92
2019-03-03T01:29:19.450Z,85.47
2019-03-03T01:34:22.980Z,84.90
2019-03-03T01:39:26.539Z,92.30
2019-03-03T01:44:30.085Z,80.95
2019-03-03T01:49:33.651Z,81.05
2019-03-03T01:54:37.176Z,84.32
2019-03-03T01:59:40.757Z,77.22
2019-03-03T02:04:44.395Z,76.42
2019-03-03T02:09:47.934Z,84.85
2019-03-03T02:14:51.489Z,73.95
2019-03-03T02:19:55.013Z,71.70
2019-03-03T02:24:58.556Z,72.05
2019-03-03T02:30:02.130Z,71.57
2019-03-03T02:35:05.762Z,76.02
2019-03-03T02:40:12.265Z,74.45
2019-03-03T02:45:16.284Z,69.77
2019-03-03T02:50:20.186Z,76.90
2019-03-03T02:55:23.733Z,73.78
2019-03-03T03:00:27.295Z,70.85
2019-03-03T03:05:48.642Z,66.07
2019-03-03T03:10:56.561Z,61.58
2019-03-03T03:16:01.735Z,62.95
2019-03-03T03:21:12.847Z,65.00
2019-03-03T03:26:18.100Z,62.93
2019-03-03T03:31:29.236Z,62.60
2019-03-03T03:36:36.634Z,64.22
2019-03-03T03:41:41.187Z,59.20
2019-03-03T03:46:52.867Z,60.10
2019-03-03T03:51:57.989Z,61.37
2019-03-03T03:57:06.102Z,59.73
2019-03-03T04:02:23.269Z,61.95
2019-03-03T04:07:36.908Z,55.87
2019-03-03T04:12:42.036Z,58.17
2019-03-03T04:17:53.159Z,59.58
2019-03-03T04:23:01.086Z,56.33
2019-03-03T04:28:09.387Z,60.67
2019-03-03T04:33:14.503Z,60.77
2019-03-03T04:38:19.630Z,59.17
2019-03-03T04:43:24.742Z,54.23
2019-03-03T04:48:29.888Z,59.58
2019-03-03T04:53:34.990Z,63.00
2019-03-03T04:58:46.102Z,56.42
2019-03-03T05:03:51.212Z,61.53
2019-03-03T05:08:56.333Z,61.58
2019-03-03T05:14:01.471Z,61.25
2019-03-03T05:19:06.596Z,61.33
2019-03-03T05:24:10.162Z,58.85
2019-03-03T05:29:13.750Z,61.00
2019-03-03T05:34:17.275Z,62.60
2019-03-03T05:39:20.858Z,60.63
2019-03-03T05:44:24.418Z,65.65
2019-03-03T05:49:27.986Z,62.65
2019-03-03T05:54:31.696Z,67.08
2019-03-03T05:59:35.251Z,66.02
2019-03-03T06:04:38.821Z,65.05
2019-03-03T06:09:42.357Z,66.47
2019-03-03T06:14:45.899Z,66.22
2019-03-03T06:19:49.465Z,60.05
2019-03-03T06:24:53.036Z,65.25
2019-03-03T06:29:56.565Z,67.27
2019-03-03T06:35:00.310Z,58.68
2019-03-03T06:40:07.196Z,68.87
2019-03-03T06:45:13.362Z,61.70
2019-03-03T06:50:16.930Z,64.40
2019-03-03T06:55:21.421Z,52.65
2019-03-03T07:00:24.996Z,52.27
2019-03-03T07:05:28.596Z,51.08
2019-03-03T07:10:32.175Z,51.42
2019-03-03T07:15:35.728Z,47.88
2019-03-03T07:20:39.278Z,50.37
2019-03-03T07:25:42.895Z,48.15
2019-03-03T07:30:46.448Z,59.27
2019-03-03T07:35:49.993Z,42.62
2019-03-03T07:40:53.594Z,41.25
2019-03-03T07:45:57.143Z,34.25
2019-03-03T07:51:00.721Z,24.02
2019-03-03T07:56:04.937Z,21.40
2019-03-03T08:01:08.510Z,24.40
2019-03-03T08:06:13.078Z,28.55
2019-03-03T08:11:16.608Z,26.95
2019-03-03T08:16:20.157Z,19.80
2019-03-03T08:21:23.777Z,15.50
2019-03-03T08:26:27.311Z,15.15
2019-03-03T08:31:30.895Z,12.88
2019-03-03T08:36:34.446Z,12.40
2019-03-03T08:41:39.583Z,15.20
2019-03-03T08:46:50.960Z,12.15
2019-03-03T08:52:02.061Z,9.50
2019-03-03T08:57:10.110Z,8.55
2019-03-03T09:02:17.693Z,8.88
2019-03-03T09:07:34.857Z,9.48
2019-03-03T09:12:42.990Z,7.87
2019-03-03T09:18:00.214Z,7.70
2019-03-03T09:23:06.403Z,8.58
2019-03-03T09:28:14.563Z,10.98
2019-03-03T09:33:28.854Z,10.68
2019-03-03T09:38:34.013Z,13.98
2019-03-03T09:43:41.915Z,13.25
2019-03-03T09:48:49.861Z,12.78
2019-03-03T09:54:11.145Z,16.27
2019-03-03T09:59:32.680Z,15.05
2019-03-03T10:04:54.484Z,16.00
2019-03-03T10:10:02.423Z,17.32
2019-03-03T10:15:10.285Z,16.55
2019-03-03T10:20:18.296Z,49.33
2019-03-03T10:25:26.089Z,59.03
2019-03-03T10:30:47.981Z,23.98
2019-03-03T10:35:53.119Z,26.65
2019-03-03T10:41:14.654Z,25.20
2019-03-03T10:46:19.804Z,30.57
2019-03-03T10:51:37.268Z,19.10
2019-03-03T10:56:57.498Z,20.52
2019-03-03T11:02:18.869Z,21.60
2019-03-03T11:07:23.984Z,20.68
2019-03-03T11:12:38.364Z,22.50
2019-03-03T11:17:43.774Z,20.08
2019-03-03T11:22:51.927Z,17.32
2019-03-03T11:28:00.470Z,21.68
2019-03-03T11:33:20.865Z,18.53
2019-03-03T11:38:44.269Z,18.05
2019-03-03T11:43:55.827Z,16.12
2019-03-03T11:49:01.008Z,20.90
2019-03-03T11:54:06.648Z,21.35
2019-03-03T11:59:30.456Z,18.77
2019-03-03T12:04:35.640Z,17.92
2019-03-03T12:09:52.716Z,20.15
2019-03-03T12:15:00.732Z,21.00
2019-03-03T12:20:10.075Z,18.80
2019-03-03T12:25:17.844Z,15.60
2019-03-03T12:30:25.886Z,17.85
2019-03-03T12:35:46.292Z,18.10
2019-03-03T12:40:51.493Z,17.82
2019-03-03T12:46:02.482Z,18.12
2019-03-03T12:51:07.764Z,15.40
2019-03-03T12:56:22.474Z,16.25
2019-03-03T13:01:42.810Z,13.60
2019-03-03T13:06:48.105Z,12.70
2019-03-03T13:11:53.869Z,12.90
2019-03-03T13:17:14.405Z,12.85
2019-03-03T13:22:25.636Z,14.80
2019-03-03T13:27:47.112Z,13.13
2019-03-03T13:32:52.254Z,12.55
2019-03-03T13:37:57.952Z,14.70
2019-03-03T13:43:01.495Z,16.67
2019-03-03T13:48:05.064Z,14.90
2019-03-03T13:53:08.610Z,12.25
2019-03-03T13:58:12.152Z,11.95
2019-03-03T14:03:15.723Z,13.83
2019-03-03T14:08:19.360Z,14.95
2019-03-03T14:13:23.291Z,10.40
2019-03-03T14:18:26.927Z,11.63
2019-03-03T14:23:32.171Z,13.85
2019-03-03T14:28:36.339Z,16.85
2019-03-03T14:33:41.482Z,15.78
2019-03-03T14:38:45.099Z,16.82
2019-03-03T14:43:48.651Z,16.90
2019-03-03T14:48:52.190Z,13.13
2019-03-03T14:53:55.786Z,14.87
2019-03-03T14:58:59.738Z,14.73
2019-03-03T15:04:03.335Z,15.05
2019-03-03T15:09:08.681Z,12.43
2019-03-03T15:14:12.429Z,11.75
2019-03-03T15:19:16.858Z,11.80
2019-03-03T15:24:23.457Z,18.50
2019-03-03T15:29:27.198Z,14.43
2019-03-03T15:34:30.737Z,15.45
2019-03-03T15:39:34.544Z,12.68
2019-03-03T15:44:38.204Z,20.00
2019-03-03T15:49:41.943Z,15.78
2019-03-03T15:54:45.506Z,13.18
2019-03-03T15:59:49.130Z,15.08
2019-03-03T16:04:52.739Z,14.23
2019-03-03T16:09:57.135Z,16.97
2019-03-03T16:15:00.712Z,15.60
2019-03-03T16:20:07.231Z,19.95
2019-03-03T16:25:13.597Z,13.53
2019-03-03T16:30:18.667Z,17.92
2019-03-03T16:35:22.314Z,15.03
2019-03-03T16:40:26.477Z,17.60
2019-03-03T16:45:30.174Z,13.68
2019-03-03T16:50:33.789Z,16.00
2019-03-03T16:55:37.521Z,15.43
2019-03-03T17:00:41.061Z,12.20
2019-03-03T17:05:44.636Z,12.60
2019-03-03T17:10:48.342Z,16.23
2019-03-03T17:15:51.889Z,13.75
2019-03-03T17:20:55.490Z,15.20
2019-03-03T17:25:59.009Z,17.02
2019-03-03T17:31:02.647Z,22.40
2019-03-03T17:36:06.205Z,30.25
2019-03-03T17:41:09.892Z,19.54
2019-03-03T17:46:13.418Z,19.05
2019-03-03T17:51:17.020Z,15.78
2019-03-03T17:56:20.640Z,16.33
2019-03-03T18:01:24.280Z,15.35
2019-03-03T18:06:27.988Z,20.32
2019-03-03T18:11:31.646Z,18.92
2019-03-03T18:16:35.234Z,23.02
2019-03-03T18:21:39.078Z,15.03
2019-03-03T18:26:42.910Z,21.77
2019-03-03T18:31:46.450Z,17.07
2019-03-03T18:36:50.109Z,17.92
2019-03-03T18:41:53.787Z,19.20
2019-03-03T18:46:57.393Z,17.05
2019-03-03T18:52:00.963Z,19.67
2019-03-03T18:57:06.202Z,16.00
2019-03-03T19:02:09.780Z,17.07
2019-03-03T19:07:13.392Z,16.30
2019-03-03T19:12:19.554Z,19.82
2019-03-03T19:17:23.117Z,21.23
2019-03-03T19:22:26.716Z,18.52
2019-03-03T19:27:30.303Z,11.38
2019-03-03T19:32:33.857Z,11.93
2019-03-03T19:37:43.143Z,14.65
2019-03-03T19:42:47.128Z,15.25
2019-03-03T19:47:50.681Z,16.50
2019-03-03T19:52:54.250Z,14.73
2019-03-03T19:57:57.863Z,13.03
2019-03-03T20:03:01.426Z,13.60
2019-03-03T20:08:05.507Z,19.27
2019-03-03T20:13:09.321Z,18.52
2019-03-03T20:18:12.867Z,14.75
2019-03-03T20:23:16.490Z,16.73
2019-03-03T20:28:20.111Z,15.45
2019-03-03T20:33:23.661Z,13.50
2019-03-03T20:38:27.413Z,15.55
2019-03-03T20:43:31.084Z,15.35
2019-03-03T20:48:35.026Z,13.98
2019-03-03T20:53:38.611Z,11.05
2019-03-03T20:58:42.301Z,10.30
2019-03-03T21:03:46.073Z,12.25
2019-03-03T21:08:50.056Z,12.65
2019-03-03T21:13:53.612Z,14.73
2019-03-03T21:18:57.392Z,12.10
2019-03-03T21:24:01.150Z,10.82
2019-03-03T21:29:05.122Z,10.24
2019-03-03T21:34:08.830Z,22.82
2019-03-03T21:39:12.621Z,15.75
2019-03-03T21:44:16.416Z,14.70
2019-03-03T21:49:20.375Z,14.40
2019-03-03T21:54:24.541Z,14.05
2019-03-03T21:59:29.053Z,16.10
2019-03-03T22:04:32.780Z,13.28
2019-03-03T22:09:39.265Z,13.10
2019-03-03T22:14:42.907Z,15.10
2019-03-03T22:19:46.892Z,13.32
2019-03-03T22:24:51.183Z,15.20
2019-03-03T22:29:54.951Z,15.00
2019-03-03T22:34:58.581Z,15.50
2019-03-03T22:40:02.158Z,14.83
2019-03-03T22:45:08.990Z,12.90
2019-03-03T22:50:16.968Z,17.60
2019-03-03T22:55:21.446Z,15.93
2019-03-03T23:00:56.145Z,16.23
2019-03-03T23:06:08.605Z,15.10
2019-03-03T23:11:30.284Z,13.83
2019-03-03T23:16:48.832Z,21.73
2019-03-03T23:21:58.139Z,18.92
2019-03-03T23:27:01.678Z,19.87
2019-03-03T23:32:05.230Z,20.20
2019-03-03T23:37:08.819Z,16.10
2019-03-03T23:42:12.360Z,14.45
2019-03-03T23:47:15.925Z,15.95
2019-03-03T23:52:19.511Z,16.23
2019-03-03T23:57:23.539Z,15.98
